^^

Nearby METAR Reports

 

EGNV - Tees-Side, United Kingdom
Distance from station: SW 7mi, 11km
Updated: 14/04/2021 18:20
Clear
Clear
 Wind from NE
Wind: NE 13 mph , 20 km/h
Temperature: 8°C
Wind Chill: 4°C
Dew Point: -2°C
Humidity: 50%
Barometer: 1034 hPa
Summary: Clear
Visibility: greater than 7 miles , 10 km
2021/04/14 17:20 EGNV 141720Z 05011KT CAVOK 08/M02 Q1034
EGXE - Leeming Raf, United Kingdom
Distance from station: SSW 23mi, 37km
Updated: 14/04/2021 17:50
Clear
Clear
 Wind from NE
Wind: NE 9 mph , 15 km/h
Temperature: 10°C
Wind Chill: 8°C
Dew Point: -2°C
Humidity: 43%
Barometer: 1033 hPa
Clouds: Clear
Visibility: 6 miles , 10 km
2021/04/14 16:50 EGXE 141650Z AUTO 05008KT 9999 NCD 10/M02 Q1033
 
EGXZ - Topcliffe Raf, United Kingdom
Distance from station: S 27mi, 43km
Updated: 14/04/2021 17:50
Clear
Clear
 Wind from NE
Wind: NE 10 mph , 17 km/h
Temperature: 11°C
Dew Point: -2°C
Humidity: 41%
Barometer: 1033 hPa
Clouds: Clear
Visibility: 6 miles , 10 km
2021/04/14 16:50 EGXZ 141650Z AUTO 04009KT 9999 NCD 11/M02 Q1033
EGNT - Newcastle, United Kingdom
Distance from station: NNW 34mi, 54km
Updated: 14/04/2021 18:20
Clear
Clear
 Wind from ESE
Wind: ESE 7 mph , 11 km/h
Temperature: 8°C
Wind Chill: 6°C
Dew Point: -1°C
Humidity: 53%
Barometer: 1034 hPa
Summary: Clear
Visibility: greater than 7 miles , 10 km
2021/04/14 17:20 EGNT 141720Z 11006KT 070V160 CAVOK 08/M01 Q1034
 
EGXU - Linton-On-Ouse R, United Kingdom
Distance from station: S 37mi, 60km
Updated: 14/04/2021 17:50
Mostly cloudy
Mostly cloudy
 Wind from ESE
Wind: ESE 8 mph , 13 km/h
Temperature: 10°C
Wind Chill: 8°C
Dew Point: -1°C
Humidity: 47%
Barometer: 1033 hPa
Clouds: Mostly cloudy
Visibility: 6 miles , 10 km
Cloud details: Mostly cloudy 1524 m
2021/04/14 16:50 EGXU 141650Z AUTO 11007KT 9999 BKN050/// 10/M01 Q1033
EGNM - Leeds And Bradfo, United Kingdom
Distance from station: SSW 52mi, 83km
Updated: 14/04/2021 15:50
NOT Current
Few Clouds
Few Clouds
 Wind from NE
Wind: NE 8 mph , 13 km/h
Temperature: 10°C
Wind Chill: 8°C
Dew Point: -1°C
Humidity: 47%
Barometer: 1033 hPa
Clouds: Few Clouds
Visibility: 6 miles , 10 km
Cloud details: Few Clouds 1463 m
2021/04/14 14:50 EGNM 141450Z 05007KT 020V090 9999 FEW048 10/M01 Q1033
 
EGOM - Spadeadam, United Kingdom
Distance from station: WNW 58mi, 94km
Updated: 14/04/2021 18:31
unable to load EGOM data RC=
unable to load EGOM data RC=
 
EGCN - Doncaster Sheffi, United Kingdom
Distance from station: S 77mi, 124km
Updated: 14/04/2021 18:20
Clear
Clear
 Wind from E
Wind: E 7 mph , 11 km/h
Temperature: 9°C
Wind Chill: 7°C
Dew Point: 0°C
Humidity: 54%
Barometer: 1034 hPa
Summary: Clear
Visibility: greater than 7 miles , 10 km
2021/04/14 17:20 EGCN 141720Z 08006KT CAVOK 09/00 Q1034
 
EGNJ - Humberside, United Kingdom
Distance from station: SSE 80mi, 129km
Updated: 14/04/2021 18:20
Few Clouds
Few Clouds
 Wind from NE
Wind: NE 12 mph , 19 km/h
Temperature: 8°C
Wind Chill: 4°C
Dew Point: 0°C
Humidity: 57%
Barometer: 1034 hPa
Clouds: Few Clouds
Visibility: 6 miles , 10 km
Cloud details: Few Clouds 1036 m
2021/04/14 17:20 EGNJ 141720Z 05010KT 010V080 9999 FEW034 08/M00 Q1034
EGNH - Blackpool Airpor, United Kingdom
Distance from station: SW 90mi, 145km
Updated: 14/04/2021 18:20
Clear
Clear
 Wind from N
Wind: N 10 mph , 17 km/h
Temperature: 10°C
Wind Chill: 8°C
Dew Point: 5°C
Humidity: 71%
Barometer: 1033 hPa
Summary: Clear
Visibility: greater than 7 miles , 10 km
2021/04/14 17:20 EGNH 141720Z 36009KT CAVOK 10/05 Q1033
 
EGXP - Scampton Raf, United Kingdom
Distance from station: SSE 94mi, 151km
Updated: 14/04/2021 17:50
Few Clouds
Few Clouds
 Wind from NE
Wind: NE 12 mph , 19 km/h
Temperature: 8°C
Wind Chill: 4°C
Dew Point: -1°C
Humidity: 53%
Barometer: 1033 hPa
Clouds: Few Clouds
Visibility: 6 miles , 10 km
Cloud details: Few Clouds 1372 m
2021/04/14 16:50 EGXP 141650Z AUTO 05010KT 9999 // FEW045/// 08/M01 Q1033
EGCC - Manchester Intl, United Kingdom
Distance from station: SSW 94mi, 152km
Updated: 14/04/2021 18:20
Clear
Clear
 Wind from ENE
Wind: ENE 7 mph , 11 km/h
Temperature: 10°C
Wind Chill: 8°C
Dew Point: -2°C
Humidity: 43%
Barometer: 1032 hPa
Clouds: Clear
Visibility: 6 miles , 10 km
2021/04/14 17:20 EGCC 141720Z AUTO 06006KT 9999 NCD 10/M02 Q1032 NOSIG